createdAt,value
2022-09-17T00:01:25.264Z,4.35
2022-09-17T00:03:55.779Z,4.28
2022-09-17T00:06:24.615Z,2.83
2022-09-17T00:08:53.504Z,2.88
2022-09-17T00:11:27.217Z,3.40
2022-09-17T00:13:55.150Z,4.72
2022-09-17T00:16:25.720Z,2.42
2022-09-17T00:18:53.493Z,2.67
2022-09-17T00:21:21.582Z,4.38
2022-09-17T00:23:49.193Z,2.92
2022-09-17T00:26:16.496Z,3.38
2022-09-17T00:28:48.426Z,3.97
2022-09-17T00:31:15.818Z,3.85
2022-09-17T00:33:46.446Z,5.30
2022-09-17T00:36:13.813Z,6.90
2022-09-17T00:38:41.265Z,7.32
2022-09-17T00:41:09.180Z,3.85
2022-09-17T00:43:41.746Z,5.53
2022-09-17T00:46:38.864Z,4.40
2022-09-17T00:49:23.069Z,6.43
2022-09-17T00:52:19.932Z,5.97
2022-09-17T00:54:57.566Z,7.30
2022-09-17T00:57:25.562Z,7.32
2022-09-17T00:59:52.943Z,7.68
2022-09-17T01:02:20.657Z,7.25
2022-09-17T01:04:48.035Z,7.22
2022-09-17T01:07:49.058Z,7.43
2022-09-17T01:10:51.159Z,10.07
2022-09-17T01:13:43.011Z,6.45
2022-09-17T01:16:35.508Z,8.68
2022-09-17T01:19:11.879Z,11.75
2022-09-17T01:21:43.890Z,9.90
2022-09-17T01:24:32.878Z,10.20
2022-09-17T01:27:33.098Z,11.00
2022-09-17T01:30:38.992Z,9.60
2022-09-17T01:33:24.608Z,11.05
2022-09-17T01:36:14.298Z,10.57
2022-09-17T01:39:03.139Z,9.43
2022-09-17T01:41:45.899Z,9.00
2022-09-17T01:44:31.624Z,9.00
2022-09-17T01:47:27.622Z,10.18
2022-09-17T01:50:09.724Z,8.43
2022-09-17T01:52:40.624Z,10.02
2022-09-17T01:55:16.313Z,11.45
2022-09-17T01:58:05.957Z,7.57
2022-09-17T02:00:33.646Z,7.97
2022-09-17T02:03:08.311Z,9.98
2022-09-17T02:05:44.675Z,9.00
2022-09-17T02:08:38.467Z,12.07
2022-09-17T02:11:10.194Z,9.30
2022-09-17T02:13:46.145Z,10.77
2022-09-17T02:16:17.150Z,10.75
2022-09-17T02:19:08.604Z,10.88
2022-09-17T02:22:00.301Z,9.63
2022-09-17T02:24:34.790Z,10.43
2022-09-17T02:27:12.207Z,10.38
2022-09-17T02:29:44.520Z,7.38
2022-09-17T02:32:13.294Z,14.07
2022-09-17T02:34:40.748Z,11.82
2022-09-17T02:37:08.330Z,8.48
2022-09-17T02:39:35.809Z,11.30
2022-09-17T02:42:17.512Z,11.60
2022-09-17T02:45:02.417Z,8.70
2022-09-17T02:47:58.529Z,8.13
2022-09-17T02:50:41.034Z,11.70
2022-09-17T02:53:14.373Z,9.93
2022-09-17T02:56:07.217Z,7.13
2022-09-17T02:58:57.609Z,9.68
2022-09-17T03:01:33.039Z,8.55
2022-09-17T03:04:02.789Z,11.27
2022-09-17T03:06:30.686Z,14.27
2022-09-17T03:08:57.937Z,11.77
2022-09-17T03:11:25.405Z,9.98
2022-09-17T03:13:52.821Z,7.25
2022-09-17T03:16:20.077Z,6.75
2022-09-17T03:18:47.499Z,8.73
2022-09-17T03:21:14.699Z,9.70
2022-09-17T03:23:41.946Z,11.50
2022-09-17T03:26:09.504Z,10.63
2022-09-17T03:28:36.741Z,14.27
2022-09-17T03:31:05.883Z,10.07
2022-09-17T03:33:33.859Z,7.88
2022-09-17T03:36:01.302Z,11.43
2022-09-17T03:38:28.804Z,10.00
2022-09-17T03:41:04.413Z,10.10
2022-09-17T03:43:31.686Z,10.50
2022-09-17T03:45:58.968Z,9.98
2022-09-17T03:48:26.791Z,10.10
2022-09-17T03:50:53.929Z,9.15
2022-09-17T03:53:21.181Z,9.25
2022-09-17T03:55:48.383Z,8.23
2022-09-17T03:58:15.925Z,7.63
2022-09-17T04:00:43.174Z,7.72
2022-09-17T04:03:10.511Z,10.18
2022-09-17T04:05:37.787Z,8.30
2022-09-17T04:08:05.139Z,7.78
2022-09-17T04:10:32.365Z,9.05
2022-09-17T04:12:59.808Z,10.10
2022-09-17T04:15:27.209Z,8.27
2022-09-17T04:17:58.207Z,10.57
2022-09-17T04:20:25.828Z,7.35
2022-09-17T04:22:53.148Z,6.65
2022-09-17T04:25:20.540Z,7.47
2022-09-17T04:27:48.770Z,8.05
2022-09-17T04:30:16.215Z,9.77
2022-09-17T04:32:45.288Z,14.50
2022-09-17T04:35:13.256Z,11.65
2022-09-17T04:37:40.678Z,9.82
2022-09-17T04:40:09.025Z,5.78
2022-09-17T04:42:36.334Z,7.70
2022-09-17T04:45:03.766Z,7.50
2022-09-17T04:47:31.145Z,7.82
2022-09-17T04:49:58.377Z,10.90
2022-09-17T04:52:30.241Z,12.95
2022-09-17T04:54:58.208Z,9.48
2022-09-17T04:57:26.323Z,5.80
2022-09-17T04:59:53.818Z,8.02
2022-09-17T05:02:21.240Z,9.85
2022-09-17T05:04:48.540Z,10.80
2022-09-17T05:07:15.773Z,7.35
2022-09-17T05:09:43.184Z,10.82
2022-09-17T05:12:10.479Z,12.30
2022-09-17T05:14:37.728Z,10.98
2022-09-17T05:17:05.012Z,5.65
2022-09-17T05:19:32.523Z,11.45
2022-09-17T05:21:59.704Z,6.88
2022-09-17T05:24:27.909Z,11.52
2022-09-17T05:26:55.356Z,6.18
2022-09-17T05:29:22.632Z,8.77
2022-09-17T05:31:49.977Z,7.78
2022-09-17T05:34:17.178Z,10.45
2022-09-17T05:36:44.440Z,9.30
2022-09-17T05:39:11.686Z,11.15
2022-09-17T05:41:39.018Z,8.00
2022-09-17T05:44:06.315Z,10.23
2022-09-17T05:46:33.576Z,9.40
2022-09-17T05:49:00.923Z,5.68
2022-09-17T05:51:28.120Z,4.72
2022-09-17T05:53:56.254Z,8.07
2022-09-17T05:56:24.235Z,6.50
2022-09-17T05:58:56.921Z,4.00
2022-09-17T06:01:24.543Z,4.18
2022-09-17T06:03:51.884Z,4.47
2022-09-17T06:06:19.189Z,4.75
2022-09-17T06:08:46.467Z,6.57
2022-09-17T06:11:13.672Z,3.75
2022-09-17T06:13:43.573Z,4.55
2022-09-17T06:16:10.946Z,5.03
2022-09-17T06:18:38.223Z,5.55
2022-09-17T06:21:05.859Z,5.03
2022-09-17T06:23:37.405Z,6.30
2022-09-17T06:26:06.161Z,5.07
2022-09-17T06:28:36.715Z,5.18
2022-09-17T06:31:08.130Z,3.53
2022-09-17T06:33:36.395Z,3.67
2022-09-17T06:36:12.410Z,4.10
2022-09-17T06:38:41.492Z,5.88
2022-09-17T06:41:09.038Z,9.32
2022-09-17T06:43:36.240Z,8.00
2022-09-17T06:46:06.259Z,5.20
2022-09-17T06:48:35.291Z,6.30
2022-09-17T06:51:04.626Z,5.45
2022-09-17T06:53:32.259Z,6.15
2022-09-17T06:56:05.863Z,6.18
2022-09-17T06:58:34.461Z,5.60
2022-09-17T07:01:02.313Z,5.97
2022-09-17T07:03:31.186Z,3.35
2022-09-17T07:05:58.949Z,4.20
2022-09-17T07:08:26.564Z,3.90
2022-09-17T07:10:58.147Z,3.63
2022-09-17T07:13:26.529Z,7.00
2022-09-17T07:15:59.144Z,4.85
2022-09-17T07:18:27.231Z,5.80
2022-09-17T07:21:02.368Z,5.25
2022-09-17T07:23:35.557Z,8.60
2022-09-17T07:26:10.258Z,4.47
2022-09-17T07:28:39.342Z,5.65
2022-09-17T07:31:09.410Z,7.18
2022-09-17T07:33:40.822Z,6.15
2022-09-17T07:36:11.968Z,6.63
2022-09-17T07:38:39.706Z,10.38
2022-09-17T07:41:15.282Z,6.80
2022-09-17T07:43:43.438Z,7.25
2022-09-17T07:46:17.306Z,6.82
2022-09-17T07:48:46.248Z,9.57
2022-09-17T07:51:24.780Z,7.40
2022-09-17T07:53:58.032Z,7.50
2022-09-17T07:56:27.152Z,7.53
2022-09-17T07:58:55.245Z,10.93
2022-09-17T08:01:22.900Z,8.77
2022-09-17T08:03:52.200Z,8.68
2022-09-17T08:06:23.707Z,12.32
2022-09-17T08:08:50.969Z,6.97
2022-09-17T08:11:51.721Z,9.07
2022-09-17T08:14:11.370Z,7.82
2022-09-17T08:16:38.836Z,9.68
2022-09-17T08:19:06.123Z,11.55
2022-09-17T08:21:33.565Z,14.60
2022-09-17T08:24:00.903Z,11.23
2022-09-17T08:26:28.246Z,8.07
2022-09-17T08:28:56.643Z,7.45
2022-09-17T08:31:26.804Z,10.23
2022-09-17T08:33:54.495Z,10.38
2022-09-17T08:36:22.997Z,8.27
2022-09-17T08:38:54.454Z,6.30
2022-09-17T08:41:36.974Z,10.65
2022-09-17T08:44:04.838Z,9.88
2022-09-17T08:46:47.315Z,11.95
2022-09-17T08:49:26.733Z,11.15
2022-09-17T08:52:21.324Z,10.07
2022-09-17T08:55:06.632Z,11.93
2022-09-17T08:57:53.734Z,8.77
2022-09-17T09:00:22.854Z,10.10
2022-09-17T09:03:25.222Z,8.88
2022-09-17T09:05:53.194Z,10.73
2022-09-17T09:08:51.233Z,11.85
2022-09-17T09:11:26.369Z,9.73
2022-09-17T09:14:26.485Z,10.52
2022-09-17T09:16:56.736Z,6.22
2022-09-17T09:19:27.161Z,12.00
2022-09-17T09:22:03.869Z,10.65
2022-09-17T09:24:45.202Z,9.50
2022-09-17T09:27:18.343Z,9.77
2022-09-17T09:29:59.481Z,7.82
2022-09-17T09:32:38.613Z,11.25
2022-09-17T09:35:34.073Z,10.88
2022-09-17T09:38:45.667Z,11.20
2022-09-17T09:44:03.692Z,14.05
2022-09-17T09:46:50.621Z,11.35
2022-09-17T09:49:51.015Z,13.90
2022-09-17T09:52:47.245Z,18.27
2022-09-17T09:55:26.668Z,12.52
2022-09-17T09:58:03.622Z,12.02
2022-09-17T10:00:36.945Z,12.55
2022-09-17T10:03:17.835Z,13.13
2022-09-17T10:06:05.948Z,14.18
2022-09-17T10:08:35.584Z,12.20
2022-09-17T10:11:13.565Z,14.23
2022-09-17T10:13:41.224Z,9.52
2022-09-17T10:16:26.862Z,9.63
2022-09-17T10:19:06.593Z,11.88
2022-09-17T10:21:42.637Z,14.73
2022-09-17T10:24:32.436Z,14.30
2022-09-17T10:27:12.331Z,10.20
2022-09-17T10:29:44.503Z,10.93
2022-09-17T10:32:30.220Z,11.10
2022-09-17T10:35:06.320Z,9.13
2022-09-17T10:37:48.562Z,9.52
2022-09-17T10:40:19.014Z,11.82
2022-09-17T10:42:48.021Z,8.85
2022-09-17T10:45:26.080Z,8.93
2022-09-17T10:47:54.149Z,12.13
2022-09-17T10:50:28.982Z,11.77
2022-09-17T10:52:59.648Z,10.82
2022-09-17T10:56:03.947Z,5.85
2022-09-17T10:59:05.192Z,11.45
2022-09-17T11:01:48.626Z,9.40
2022-09-17T11:04:27.882Z,12.48
2022-09-17T11:07:13.761Z,9.00
2022-09-17T11:10:14.862Z,11.32
2022-09-17T11:13:07.071Z,11.05
2022-09-17T11:18:25.945Z,6.90
2022-09-17T11:21:08.550Z,8.65
2022-09-17T11:24:14.418Z,10.85
2022-09-17T11:26:41.711Z,18.17
2022-09-17T11:29:11.776Z,9.15
2022-09-17T11:32:16.708Z,9.57
2022-09-17T11:35:02.295Z,7.80
2022-09-17T11:37:38.577Z,8.00
2022-09-17T11:40:22.374Z,10.65
2022-09-17T11:43:16.405Z,10.40
2022-09-17T11:45:58.266Z,9.77
2022-09-17T11:48:46.630Z,9.90
2022-09-17T11:51:49.052Z,6.53
2022-09-17T11:56:51.305Z,9.43
2022-09-17T11:59:33.758Z,7.75
2022-09-17T12:02:12.524Z,10.65
2022-09-17T12:05:01.656Z,10.70
2022-09-17T12:07:32.528Z,8.27
2022-09-17T12:10:35.077Z,7.80
2022-09-17T12:15:53.573Z,9.98
2022-09-17T12:18:48.667Z,10.48
2022-09-17T12:21:33.605Z,9.43
2022-09-17T12:24:08.161Z,11.63
2022-09-17T12:26:44.016Z,9.15
2022-09-17T12:29:25.843Z,13.00
2022-09-17T12:32:05.133Z,7.20
2022-09-17T12:35:14.024Z,9.88
2022-09-17T12:37:59.668Z,10.73
2022-09-17T12:40:32.794Z,8.93
2022-09-17T12:43:37.209Z,9.50
2022-09-17T12:46:19.980Z,6.35
2022-09-17T12:49:09.849Z,8.68
2022-09-17T12:52:21.186Z,8.73
2022-09-17T12:55:00.113Z,7.90
2022-09-17T12:57:33.102Z,7.45
2022-09-17T13:00:08.382Z,6.63
2022-09-17T13:02:51.731Z,8.68
2022-09-17T13:05:24.708Z,7.63
2022-09-17T13:08:14.160Z,9.32
2022-09-17T13:11:16.652Z,5.80
2022-09-17T13:16:25.689Z,6.53
2022-09-17T13:19:19.867Z,7.95
2022-09-17T13:21:55.820Z,5.45
2022-09-17T13:24:25.424Z,5.97
2022-09-17T13:26:54.288Z,6.55
2022-09-17T13:29:46.231Z,7.00
2022-09-17T13:32:35.069Z,4.38
2022-09-17T13:35:16.818Z,3.38
2022-09-17T13:37:45.755Z,4.18
2022-09-17T13:40:27.646Z,6.13
2022-09-17T13:43:02.674Z,2.45
2022-09-17T13:45:31.771Z,6.45
2022-09-17T13:48:12.540Z,5.00
2022-09-17T13:50:44.726Z,4.85
2022-09-17T13:53:14.987Z,4.32
2022-09-17T13:55:48.229Z,4.78
2022-09-17T13:58:18.864Z,4.47
2022-09-17T14:00:58.152Z,3.38
2022-09-17T14:03:31.623Z,6.78
2022-09-17T14:06:19.632Z,3.33
2022-09-17T14:08:47.454Z,2.35
2022-09-17T14:11:24.082Z,3.92
2022-09-17T14:13:52.918Z,3.22
2022-09-17T14:16:29.306Z,3.63
2022-09-17T14:19:22.387Z,3.75
2022-09-17T14:22:00.716Z,4.72
2022-09-17T14:24:44.895Z,4.15
2022-09-17T14:27:19.046Z,5.05
2022-09-17T14:30:24.394Z,4.68
2022-09-17T14:33:00.948Z,4.22
2022-09-17T14:35:49.463Z,6.63
2022-09-17T14:38:33.946Z,6.15
2022-09-17T14:41:06.524Z,5.22
2022-09-17T14:43:55.044Z,6.72
2022-09-17T14:46:36.488Z,4.43
2022-09-17T14:51:48.658Z,5.10
2022-09-17T14:54:18.922Z,5.43
2022-09-17T14:56:49.209Z,6.00
2022-09-17T14:59:47.832Z,5.15
2022-09-17T15:02:46.426Z,6.13
2022-09-17T15:05:39.039Z,7.28
2022-09-17T15:08:21.500Z,6.80
2022-09-17T15:10:53.398Z,7.55
2022-09-17T15:13:27.691Z,6.95
2022-09-17T15:15:59.582Z,5.80
2022-09-17T15:18:54.524Z,5.00
2022-09-17T15:21:24.315Z,7.10
2022-09-17T15:23:55.022Z,6.45
2022-09-17T15:26:29.198Z,6.13
2022-09-17T15:28:57.788Z,8.00
2022-09-17T15:31:28.457Z,6.05
2022-09-17T15:33:59.033Z,5.50
2022-09-17T15:36:31.884Z,5.75
2022-09-17T15:38:59.586Z,6.15
2022-09-17T15:41:37.049Z,5.55
2022-09-17T15:44:31.870Z,5.43
2022-09-17T15:47:49.458Z,6.15
2022-09-17T15:50:25.827Z,6.85
2022-09-17T15:53:11.434Z,5.93
2022-09-17T15:55:58.605Z,8.75
2022-09-17T15:58:50.416Z,6.00
2022-09-17T16:03:45.029Z,4.55
2022-09-17T16:06:21.480Z,6.07
2022-09-17T16:08:51.734Z,6.20
2022-09-17T16:11:21.706Z,6.43
2022-09-17T16:13:50.036Z,6.20
2022-09-17T16:16:26.921Z,6.07
2022-09-17T16:18:54.245Z,6.70
2022-09-17T16:21:21.583Z,5.05
2022-09-17T16:23:48.827Z,6.68
2022-09-17T16:26:19.998Z,5.32
2022-09-17T16:28:49.669Z,5.88
2022-09-17T16:31:17.018Z,6.50
2022-09-17T16:33:44.262Z,5.00
2022-09-17T16:36:11.719Z,6.18
2022-09-17T16:38:41.766Z,6.30
2022-09-17T16:41:09.052Z,9.82
2022-09-17T16:43:38.503Z,9.05
2022-09-17T16:46:07.747Z,8.90
2022-09-17T16:48:35.340Z,7.10
2022-09-17T16:51:08.223Z,6.35
2022-09-17T16:53:35.568Z,10.32
2022-09-17T16:56:07.593Z,14.38
2022-09-17T17:01:14.287Z,3.30
2022-09-17T17:03:42.078Z,3.85
2022-09-17T17:06:20.152Z,4.88
2022-09-17T17:08:48.307Z,6.63
2022-09-17T17:11:15.978Z,3.83
2022-09-17T17:13:43.630Z,6.45
2022-09-17T17:16:13.755Z,5.35
2022-09-17T17:18:44.666Z,4.55
2022-09-17T17:21:13.848Z,5.05
2022-09-17T17:23:43.590Z,6.18
2022-09-17T17:26:10.876Z,4.95
2022-09-17T17:28:38.186Z,5.03
2022-09-17T17:31:06.371Z,3.47
2022-09-17T17:33:34.058Z,4.72
2022-09-17T17:36:07.580Z,4.25
2022-09-17T17:38:36.375Z,5.20
2022-09-17T17:41:08.789Z,4.63
2022-09-17T17:43:36.295Z,3.92
2022-09-17T17:46:07.935Z,5.00
2022-09-17T17:48:35.903Z,4.97
2022-09-17T17:51:08.828Z,4.50
2022-09-17T17:53:36.649Z,3.60
2022-09-17T17:56:07.282Z,3.75
2022-09-17T17:58:35.303Z,6.28
2022-09-17T18:01:14.117Z,4.25
2022-09-17T18:03:41.470Z,6.13
2022-09-17T18:06:09.892Z,5.45
2022-09-17T18:08:41.016Z,3.55
2022-09-17T18:11:09.976Z,7.13
2022-09-17T18:13:39.373Z,5.28
2022-09-17T18:16:09.275Z,5.05
2022-09-17T18:18:44.158Z,4.68
2022-09-17T18:21:15.920Z,7.43
2022-09-17T18:23:43.643Z,7.70
2022-09-17T18:26:16.631Z,5.80
2022-09-17T18:28:44.205Z,5.65
2022-09-17T18:31:23.509Z,8.15
2022-09-17T18:33:58.267Z,4.10
2022-09-17T18:36:27.003Z,4.32
2022-09-17T18:39:56.394Z,3.70
2022-09-17T18:41:49.227Z,6.00
2022-09-17T18:44:18.755Z,4.25
2022-09-17T18:46:48.035Z,6.30
2022-09-17T18:49:15.889Z,6.20
2022-09-17T18:51:43.243Z,7.70
2022-09-17T18:54:12.949Z,6.15
2022-09-17T18:56:41.868Z,4.60
2022-09-17T18:59:10.561Z,4.88
2022-09-17T19:01:38.096Z,6.80
2022-09-17T19:04:07.821Z,6.10
2022-09-17T19:06:35.777Z,6.13
2022-09-17T19:09:05.922Z,7.85
2022-09-17T19:11:35.739Z,7.07
2022-09-17T19:14:03.074Z,5.75
2022-09-17T19:16:30.596Z,4.85
2022-09-17T19:18:57.978Z,3.97
2022-09-17T19:21:25.335Z,6.28
2022-09-17T19:23:53.429Z,6.75
2022-09-17T19:26:26.553Z,4.97
2022-09-17T19:28:55.645Z,3.33
2022-09-17T19:31:23.125Z,3.08
2022-09-17T19:33:51.661Z,3.28
2022-09-17T19:36:20.245Z,2.95
2022-09-17T19:38:48.220Z,3.38
2022-09-17T19:41:20.840Z,6.07
2022-09-17T19:43:50.092Z,3.13
2022-09-17T19:46:20.122Z,4.78
2022-09-17T19:48:53.506Z,3.50
2022-09-17T19:51:23.021Z,4.13
2022-09-17T19:53:50.838Z,4.20
2022-09-17T19:56:20.598Z,4.25
2022-09-17T19:58:48.500Z,5.63
2022-09-17T20:01:16.683Z,2.60
2022-09-17T20:03:45.409Z,7.25
2022-09-17T20:06:15.140Z,5.88
2022-09-17T20:08:50.095Z,3.78
2022-09-17T20:11:18.783Z,2.65
2022-09-17T20:13:46.071Z,3.90
2022-09-17T20:16:20.192Z,7.82
2022-09-17T20:18:48.619Z,4.70
2022-09-17T20:21:15.857Z,5.85
2022-09-17T20:23:43.466Z,4.95
2022-09-17T20:26:12.139Z,3.40
2022-09-17T20:28:39.966Z,7.40
2022-09-17T20:31:11.568Z,6.38
2022-09-17T20:33:39.152Z,3.28
2022-09-17T20:36:09.243Z,5.32
2022-09-17T20:41:24.083Z,3.25
2022-09-17T20:43:53.370Z,4.43
2022-09-17T20:46:27.664Z,6.20
2022-09-17T20:48:57.785Z,2.92
2022-09-17T20:51:27.881Z,3.72
2022-09-17T20:53:57.381Z,3.13
2022-09-17T20:56:27.916Z,3.10
2022-09-17T20:59:03.386Z,2.50
2022-09-17T21:01:35.752Z,3.58
2022-09-17T21:04:05.184Z,5.00
2022-09-17T21:06:37.999Z,4.40
2022-09-17T21:09:06.476Z,3.78
2022-09-17T21:11:35.067Z,6.18
2022-09-17T21:14:02.338Z,3.53
2022-09-17T21:16:29.920Z,3.67
2022-09-17T21:18:59.548Z,6.10
2022-09-17T21:21:27.213Z,3.10
2022-09-17T21:23:54.506Z,3.10
2022-09-17T21:26:23.884Z,3.70
2022-09-17T21:28:54.528Z,4.05
2022-09-17T21:31:28.393Z,4.68
2022-09-17T21:34:05.811Z,5.18
2022-09-17T21:36:36.802Z,4.43
2022-09-17T21:39:07.477Z,6.03
2022-09-17T21:41:37.669Z,3.28
2022-09-17T21:44:09.043Z,4.82
2022-09-17T21:46:37.599Z,4.15
2022-09-17T21:49:05.419Z,7.28
2022-09-17T21:51:41.186Z,6.95
2022-09-17T21:54:11.308Z,7.38
2022-09-17T21:56:38.806Z,5.13
2022-09-17T21:59:09.253Z,4.90
2022-09-17T22:01:43.899Z,3.13
2022-09-17T22:04:13.600Z,5.30
2022-09-17T22:06:41.925Z,6.22
2022-09-17T22:09:14.654Z,6.22
2022-09-17T22:11:42.865Z,3.72
2022-09-17T22:14:18.068Z,4.25
2022-09-17T22:16:47.906Z,4.68
2022-09-17T22:19:17.156Z,4.75
2022-09-17T22:21:47.620Z,5.18
2022-09-17T22:24:17.119Z,4.22
2022-09-17T22:26:50.746Z,7.65
2022-09-17T22:29:22.644Z,5.03
2022-09-17T22:31:50.304Z,3.75
2022-09-17T22:34:20.758Z,6.55
2022-09-17T22:36:48.278Z,6.72
2022-09-17T22:39:15.958Z,6.95
2022-09-17T22:41:45.746Z,6.82
2022-09-17T22:44:17.940Z,5.18
2022-09-17T22:46:47.390Z,11.25
2022-09-17T22:49:15.247Z,4.15
2022-09-17T22:51:43.522Z,6.00
2022-09-17T22:54:18.389Z,6.43
2022-09-17T22:56:47.100Z,5.88
2022-09-17T22:59:14.794Z,8.15
2022-09-17T23:01:42.232Z,9.15
2022-09-17T23:04:09.955Z,4.68
2022-09-17T23:06:39.889Z,6.05
2022-09-17T23:09:07.628Z,7.63
2022-09-17T23:11:39.120Z,7.88
2022-09-17T23:14:11.718Z,5.72
2022-09-17T23:16:44.039Z,5.05
2022-09-17T23:19:11.944Z,4.22
2022-09-17T23:21:39.932Z,9.27
2022-09-17T23:24:07.948Z,10.07
2022-09-17T23:26:35.227Z,12.27
2022-09-17T23:29:05.157Z,5.28
2022-09-17T23:31:35.050Z,9.30
2022-09-17T23:34:03.947Z,5.47
2022-09-17T23:36:36.565Z,7.35
2022-09-17T23:39:05.319Z,7.85
2022-09-17T23:41:35.838Z,6.82
2022-09-17T23:44:12.179Z,6.43
2022-09-17T23:46:42.530Z,6.20
2022-09-17T23:49:12.431Z,6.68
2022-09-17T23:51:39.866Z,10.43
2022-09-17T23:54:07.366Z,8.40
2022-09-17T23:56:35.437Z,7.88
2022-09-17T23:59:03.069Z,9.77
